Time;durP1;ratioP1;P1;durP2;ratioP2;P2;SDS_P1;SDS_P2;PMS_P1;PMS_P2;Temp;Humidity;BMP_temperature;BMP_pressure;BME280_temperature;BME280_humidity;BME280_pressure;Samples;Min_cycle;Max_cycle;Signal;HPM_P1;HPM_P2
2021/04/03 00:00:35;;;;;;;3.58;2.20;;;5.80;98.70;;;;;;5072005;28;20495;-42
2021/04/03 00:03:01;;;;;;;6.32;2.05;;;5.80;98.20;;;;;;5071551;28;20411;-42
2021/04/03 00:05:28;;;;;;;7.00;3.03;;;5.70;99.20;;;;;;5072277;28;20048;-42
2021/04/03 00:07:54;;;;;;;9.07;2.95;;;5.60;98.70;;;;;;5072407;28;20111;-43
2021/04/03 00:10:27;;;;;;;6.65;2.45;;;5.60;99.60;;;;;;5072366;28;20063;-42
2021/04/03 00:12:53;;;;;;;7.15;2.58;;;5.60;99.30;;;;;;5072130;28;20142;-42
2021/04/03 00:15:19;;;;;;;8.32;2.10;;;5.50;99.90;;;;;;5072044;28;20033;-44
2021/04/03 00:17:45;;;;;;;7.85;2.60;;;5.40;99.90;;;;;;5071338;28;20031;-42
2021/04/03 00:20:14;;;;;;;4.97;2.47;;;5.30;99.90;;;;;;5072137;28;20021;-43
2021/04/03 00:22:40;;;;;;;5.03;2.20;;;5.20;99.90;;;;;;5072148;28;20415;-42
2021/04/03 00:25:07;;;;;;;7.68;2.90;;;5.10;99.90;;;;;;5072069;28;20097;-42
2021/04/03 00:27:33;;;;;;;5.47;2.58;;;5.00;99.90;;;;;;5071955;28;20067;-42
2021/04/03 00:29:58;;;;;;;9.23;2.53;;;4.90;99.90;;;;;;5072049;28;20052;-42
2021/04/03 00:32:24;;;;;;;7.75;2.55;;;4.80;99.90;;;;;;5072094;28;20031;-42
2021/04/03 00:34:50;;;;;;;6.53;2.55;;;4.70;99.90;;;;;;5071130;28;20025;-42
2021/04/03 00:37:16;;;;;;;4.82;2.67;;;4.60;99.90;;;;;;5071902;28;20051;-42
2021/04/03 00:39:42;;;;;;;7.35;2.97;;;4.50;99.90;;;;;;5071965;28;20067;-44
2021/04/03 00:42:17;;;;;;;4.65;2.30;;;4.40;99.90;;;;;;5074016;28;20376;-43
2021/04/03 00:44:45;;;;;;;5.80;2.53;;;4.30;99.90;;;;;;5075537;28;20088;-42
2021/04/03 00:47:11;;;;;;;7.10;2.13;;;4.30;99.90;;;;;;5075543;28;20052;-42
2021/04/03 00:49:36;;;;;;;5.75;2.22;;;4.20;99.90;;;;;;5074614;28;20044;-42
2021/04/03 00:52:08;;;;;;;9.43;2.80;;;4.00;99.90;;;;;;5075333;28;20463;-42
2021/04/03 00:54:36;;;;;;;7.57;2.55;;;4.00;99.90;;;;;;5075098;28;20040;-43
2021/04/03 00:57:04;;;;;;;5.47;2.42;;;3.90;99.90;;;;;;5075523;28;20024;-44
2021/04/03 00:59:30;;;;;;;6.95;2.88;;;3.90;99.90;;;;;;5075423;28;20020;-44
2021/04/03 01:01:56;;;;;;;4.28;2.45;;;3.80;99.90;;;;;;5075424;28;20028;-42
2021/04/03 01:04:21;;;;;;;4.88;2.42;;;3.80;99.90;;;;;;5074408;28;20145;-42
2021/04/03 01:06:47;;;;;;;3.85;2.85;;;3.70;99.90;;;;;;5075130;28;20031;-42
2021/04/03 01:09:12;;;;;;;7.47;2.75;;;3.60;99.90;;;;;;5073982;28;20056;-42
2021/04/03 01:11:43;;;;;;;5.53;2.53;;;3.60;99.90;;;;;;5075071;28;20067;-42
2021/04/03 01:14:17;;;;;;;10.30;3.25;;;3.50;99.90;;;;;;5075212;28;20029;-42
2021/04/03 01:17:25;;;;;;;8.65;2.92;;;3.40;99.90;;;;;;5074978;28;20035;-42
2021/04/03 01:20:07;;;;;;;6.90;2.60;;;3.50;99.90;;;;;;5074530;28;20025;-42
2021/04/03 01:22:53;;;;;;;8.55;3.75;;;3.40;99.90;;;;;;5074978;28;20025;-42
2021/04/03 01:25:39;;;;;;;7.05;2.90;;;3.30;99.90;;;;;;5074942;28;20104;-44
2021/04/03 01:28:17;;;;;;;4.30;2.35;;;3.30;99.90;;;;;;5074913;28;20028;-43
2021/04/03 01:30:45;;;;;;;10.10;3.10;;;3.30;99.90;;;;;;5074626;28;20145;-42
2021/04/03 01:33:14;;;;;;;4.85;2.45;;;3.30;99.90;;;;;;5074083;28;20157;-42
2021/04/03 01:35:48;;;;;;;6.85;3.08;;;3.20;99.90;;;;;;5074657;28;20044;-42
2021/04/03 01:38:35;;;;;;;6.50;2.47;;;3.10;99.90;;;;;;5075083;28;20375;-42
2021/04/03 01:41:02;;;;;;;7.00;3.08;;;3.00;99.90;;;;;;5074699;28;20020;-42
2021/04/03 01:43:34;;;;;;;9.38;3.83;;;3.00;99.90;;;;;;5074724;28;20031;-42
2021/04/03 01:46:02;;;;;;;6.20;2.33;;;2.90;99.90;;;;;;5074346;28;20140;-42
2021/04/03 01:48:29;;;;;;;6.22;2.80;;;2.90;99.90;;;;;;5073808;28;20400;-42
2021/04/03 01:50:54;;;;;;;4.10;2.35;;;2.90;99.90;;;;;;5074281;28;20129;-42
2021/04/03 01:53:21;;;;;;;7.57;3.33;;;2.80;99.90;;;;;;5074436;28;20499;-44
2021/04/03 01:55:49;;;;;;;11.23;3.20;;;2.80;99.90;;;;;;5073874;28;20499;-42
2021/04/03 01:58:16;;;;;;;6.10;2.72;;;2.80;99.90;;;;;;5074475;28;20476;-42
2021/04/03 02:00:42;;;;;;;11.40;2.60;;;2.80;99.90;;;;;;5074188;28;20025;-42
2021/04/03 02:03:09;;;;;;;6.45;2.90;;;2.70;99.90;;;;;;5072038;28;20070;-42
2021/04/03 02:05:36;;;;;;;5.30;2.45;;;2.70;99.90;;;;;;5073978;28;20047;-42
2021/04/03 02:08:03;;;;;;;5.82;2.33;;;2.60;99.90;;;;;;5074268;28;20037;-42
2021/04/03 02:10:30;;;;;;;5.50;2.92;;;2.60;99.90;;;;;;5074379;28;20058;-44
2021/04/03 02:12:58;;;;;;;6.82;2.97;;;2.60;99.90;;;;;;5073853;28;20464;-43
2021/04/03 02:15:24;;;;;;;4.55;2.90;;;2.60;99.90;;;;;;5074043;28;20052;-42
2021/04/03 02:17:51;;;;;;;7.78;2.70;;;2.60;99.90;;;;;;5072817;28;20032;-42
2021/04/03 02:20:17;;;;;;;9.57;3.80;;;2.60;99.90;;;;;;5074014;28;20016;-42
2021/04/03 02:22:43;;;;;;;7.20;4.00;;;2.60;99.90;;;;;;5073768;28;20025;-43
2021/04/03 02:25:12;;;;;;;6.88;3.33;;;2.60;99.90;;;;;;5073856;28;20028;-42
2021/04/03 02:27:38;;;;;;;8.30;2.95;;;2.50;99.90;;;;;;5073709;28;20036;-44
2021/04/03 02:30:15;;;;;;;8.68;2.72;;;2.50;99.90;;;;;;5073642;28;20043;-44
2021/04/03 02:32:47;;;;;;;8.57;3.30;;;2.40;99.90;;;;;;5072421;28;20148;-42
2021/04/03 02:35:14;;;;;;;7.57;3.58;;;2.40;99.90;;;;;;5073793;28;20028;-43
2021/04/03 02:37:40;;;;;;;9.20;3.08;;;2.30;99.90;;;;;;5073451;28;20020;-42
2021/04/03 02:40:08;;;;;;;7.20;2.92;;;2.30;99.90;;;;;;5073666;28;20024;-42
2021/04/03 02:42:40;;;;;;;6.60;3.55;;;2.30;99.90;;;;;;5073460;28;20462;-42
2021/04/03 02:45:09;;;;;;;7.60;2.92;;;2.20;99.90;;;;;;5073384;28;20043;-43
2021/04/03 02:47:44;;;;;;;7.40;3.17;;;2.20;99.90;;;;;;5072382;28;20169;-42
2021/04/03 02:50:34;;;;;;;8.48;3.58;;;2.10;99.90;;;;;;5073462;28;20032;-42
2021/04/03 02:53:02;;;;;;;7.90;3.15;;;2.20;99.90;;;;;;5053158;28;20025;-42
2021/04/03 02:55:30;;;;;;;12.82;3.92;;;2.10;99.90;;;;;;5053010;28;20514;-42
2021/04/03 02:57:58;;;;;;;10.73;3.33;;;2.10;99.90;;;;;;5068463;28;20028;-42
2021/04/03 03:00:24;;;;;;;6.90;3.00;;;2.10;99.90;;;;;;5053297;28;20047;-42
2021/04/03 03:02:50;;;;;;;6.95;3.30;;;2.00;99.90;;;;;;5051988;28;20025;-42
2021/04/03 03:05:18;;;;;;;5.93;3.08;;;2.00;99.90;;;;;;5052726;28;20028;-42
2021/04/03 03:07:46;;;;;;;8.00;3.28;;;2.00;99.90;;;;;;5053014;28;20373;-42
2021/04/03 03:10:15;;;;;;;5.75;2.75;;;1.90;99.90;;;;;;5052979;28;20029;-44
2021/04/03 03:12:42;;;;;;;7.78;3.17;;;1.90;99.90;;;;;;5052894;28;20447;-42
2021/04/03 03:15:08;;;;;;;8.48;3.17;;;1.80;99.90;;;;;;5052970;28;20021;-42
2021/04/03 03:17:35;;;;;;;6.15;3.60;;;1.80;99.90;;;;;;5051884;28;20100;-42
2021/04/03 03:20:02;;;;;;;7.95;2.80;;;1.80;99.90;;;;;;5052826;28;20064;-42
2021/04/03 03:22:29;;;;;;;9.18;3.20;;;1.80;99.90;;;;;;5052761;28;20029;-42
2021/04/03 03:24:55;;;;;;;9.18;4.13;;;1.80;99.90;;;;;;5052625;28;20032;-42
2021/04/03 03:27:21;;;;;;;10.80;4.75;;;1.80;99.90;;;;;;5071365;28;20490;-42
2021/04/03 03:29:47;;;;;;;10.75;3.58;;;1.80;99.90;;;;;;5093022;28;20035;-42
2021/04/03 03:32:13;;;;;;;6.25;3.42;;;1.80;99.90;;;;;;5092866;28;20077;-42
2021/04/03 03:34:39;;;;;;;6.65;3.33;;;1.70;99.90;;;;;;5090540;28;20081;-42
2021/04/03 03:37:04;;;;;;;9.70;3.70;;;1.70;99.90;;;;;;5092647;28;20035;-42
2021/04/03 03:39:31;;;;;;;6.78;3.60;;;1.60;99.90;;;;;;5092845;28;20635;-42
2021/04/03 03:41:58;;;;;;;7.15;3.63;;;1.60;99.90;;;;;;5092605;28;20077;-43
2021/04/03 03:44:24;;;;;;;8.07;3.72;;;1.60;99.90;;;;;;5092772;28;20196;-42
2021/04/03 03:46:50;;;;;;;8.13;3.15;;;1.50;99.90;;;;;;5092609;28;20028;-42
2021/04/03 03:49:16;;;;;;;10.23;3.20;;;1.50;99.90;;;;;;5091636;28;20352;-42
2021/04/03 03:51:41;;;;;;;8.68;3.58;;;1.40;99.90;;;;;;5080194;28;20078;-44
2021/04/03 03:54:07;;;;;;;6.95;3.20;;;1.40;99.90;;;;;;5072211;28;20032;-42
2021/04/03 03:56:32;;;;;;;9.90;3.53;;;1.40;99.90;;;;;;5072342;28;20060;-42
2021/04/03 03:58:58;;;;;;;10.65;3.40;;;1.40;99.90;;;;;;5072427;28;20103;-42
2021/04/03 04:01:23;;;;;;;10.95;4.10;;;1.30;99.90;;;;;;5072414;28;20029;-45
2021/04/03 04:03:49;;;;;;;8.73;3.55;;;1.30;99.90;;;;;;5071420;28;20040;-44
2021/04/03 04:06:14;;;;;;;6.88;3.50;;;1.20;99.90;;;;;;5072351;28;20032;-45
2021/04/03 04:08:42;;;;;;;8.15;4.18;;;1.20;99.90;;;;;;5072225;28;20440;-47
2021/04/03 04:11:07;;;;;;;8.77;3.42;;;1.20;99.90;;;;;;5072291;28;20068;-42
2021/04/03 04:13:33;;;;;;;5.95;3.15;;;1.20;99.90;;;;;;5072092;28;20052;-42
2021/04/03 04:15:59;;;;;;;8.48;3.50;;;1.20;99.90;;;;;;5072604;28;20046;-42
2021/04/03 04:18:24;;;;;;;10.88;3.58;;;1.10;99.90;;;;;;5075325;28;20059;-42
2021/04/03 04:20:50;;;;;;;7.70;3.63;;;1.10;99.90;;;;;;5076090;28;20074;-42
2021/04/03 04:23:15;;;;;;;7.80;3.40;;;1.00;99.90;;;;;;5076055;28;20047;-42
2021/04/03 04:25:41;;;;;;;9.63;4.00;;;0.90;99.90;;;;;;5074908;28;20032;-42
2021/04/03 04:28:06;;;;;;;12.02;3.67;;;0.90;99.90;;;;;;5091623;28;20031;-42
2021/04/03 04:30:32;;;;;;;5.30;2.97;;;0.90;99.90;;;;;;5096416;28;20467;-42
2021/04/03 04:32:57;;;;;;;13.18;4.15;;;0.90;99.90;;;;;;5095155;28;20498;-42
2021/04/03 04:35:23;;;;;;;8.43;3.70;;;0.90;99.90;;;;;;5096139;28;20106;-42
2021/04/03 04:37:48;;;;;;;7.95;4.03;;;0.90;99.90;;;;;;5095914;28;20020;-42
2021/04/03 04:40:14;;;;;;;12.60;4.03;;;0.90;99.90;;;;;;5096185;28;20032;-45
2021/04/03 04:42:41;;;;;;;7.75;4.00;;;0.90;99.90;;;;;;5095992;28;20126;-44
2021/04/03 04:45:09;;;;;;;11.68;4.43;;;0.90;99.90;;;;;;5095913;28;20046;-42
2021/04/03 04:47:34;;;;;;;9.32;4.00;;;1.00;99.90;;;;;;5094959;28;20027;-42
2021/04/03 04:50:00;;;;;;;8.88;3.50;;;1.10;99.90;;;;;;5095863;28;20111;-42
2021/04/03 04:52:26;;;;;;;9.95;3.17;;;1.20;99.90;;;;;;5077053;28;20060;-42
2021/04/03 04:54:52;;;;;;;6.57;3.15;;;1.20;99.90;;;;;;5075344;28;20049;-42
2021/04/03 04:57:17;;;;;;;8.40;3.83;;;1.20;99.90;;;;;;5075534;28;20035;-42
2021/04/03 04:59:43;;;;;;;6.93;3.38;;;1.30;99.90;;;;;;5075576;28;20028;-42
2021/04/03 05:02:08;;;;;;;9.75;3.53;;;1.30;99.90;;;;;;5075239;28;20078;-42
2021/04/03 05:04:34;;;;;;;7.82;3.70;;;1.40;99.90;;;;;;5074620;28;20031;-44
2021/04/03 05:07:00;;;;;;;6.07;3.33;;;1.40;99.90;;;;;;5073680;28;20035;-42
2021/04/03 05:09:25;;;;;;;9.85;4.00;;;1.50;99.90;;;;;;5075462;28;20028;-42
2021/04/03 05:11:51;;;;;;;12.18;5.82;;;1.70;99.90;;;;;;5075107;28;20029;-42
2021/04/03 05:14:16;;;;;;;6.97;3.42;;;2.00;99.90;;;;;;5073907;28;20056;-42
2021/04/03 05:16:42;;;;;;;7.03;3.45;;;2.20;99.90;;;;;;5075143;28;20479;-42
2021/04/03 05:19:07;;;;;;;7.75;3.47;;;2.30;99.90;;;;;;5074200;28;20028;-44
2021/04/03 05:21:33;;;;;;;6.65;3.05;;;2.40;99.90;;;;;;5072878;28;20027;-42
2021/04/03 05:23:58;;;;;;;5.00;2.70;;;2.60;99.90;;;;;;5081924;28;20062;-42
2021/04/03 05:26:24;;;;;;;8.77;3.60;;;2.70;99.90;;;;;;5095223;28;20081;-42
2021/04/03 05:28:49;;;;;;;9.45;3.38;;;3.00;99.90;;;;;;5094295;28;20064;-42
2021/04/03 05:31:20;;;;;;;7.25;3.25;;;3.70;99.90;;;;;;5075028;28;20056;-42
2021/04/03 05:33:45;;;;;;;6.78;2.58;;;5.00;99.90;;;;;;5073955;28;20069;-44
2021/04/03 05:36:11;;;;;;;7.70;3.03;;;6.40;99.90;;;;;;5074391;28;20119;-46
2021/04/03 05:38:36;;;;;;;6.75;2.92;;;7.70;99.90;;;;;;5074806;28;20490;-42
2021/04/03 05:41:02;;;;;;;4.78;2.67;;;8.70;98.80;;;;;;5074718;28;20024;-42
2021/04/03 05:43:28;;;;;;;6.65;3.10;;;9.70;94.00;;;;;;5074444;28;20056;-42
2021/04/03 05:45:57;;;;;;;7.25;3.05;;;10.60;91.90;;;;;;5074643;28;20107;-44
2021/04/03 05:48:23;;;;;;;7.03;2.55;;;11.40;89.20;;;;;;5073591;28;20024;-43
2021/04/03 05:50:53;;;;;;;5.78;3.28;;;12.10;85.70;;;;;;5074213;28;20040;-46
2021/04/03 05:53:18;;;;;;;4.35;2.40;;;12.60;82.10;;;;;;5074321;28;20034;-42
2021/04/03 05:55:44;;;;;;;4.30;2.30;;;12.90;75.70;;;;;;5074308;28;20135;-42
2021/04/03 05:58:10;;;;;;;4.63;2.30;;;13.50;79.40;;;;;;5074311;28;20021;-43
2021/04/03 06:00:35;;;;;;;5.22;2.40;;;14.00;77.10;;;;;;5074379;28;20418;-42
2021/04/03 06:03:01;;;;;;;4.68;2.20;;;14.40;74.80;;;;;;5073051;28;20033;-44
2021/04/03 06:05:26;;;;;;;5.60;2.67;;;14.90;73.40;;;;;;5074188;28;20108;-43
2021/04/03 06:07:52;;;;;;;5.88;2.80;;;15.10;71.50;;;;;;5074085;28;20056;-42
2021/04/03 06:10:17;;;;;;;3.33;2.38;;;15.10;69.50;;;;;;5073989;28;20034;-43
2021/04/03 06:12:48;;;;;;;3.42;2.53;;;15.10;67.10;;;;;;5071163;28;20032;-42
2021/04/03 06:15:16;;;;;;;4.28;2.05;;;15.60;68.10;;;;;;5070384;28;20503;-43
2021/04/03 06:17:44;;;;;;;3.88;2.53;;;16.10;67.80;;;;;;5088649;28;20061;-45
2021/04/03 06:20:10;;;;;;;4.38;2.13;;;16.50;65.80;;;;;;5092112;28;20588;-43
2021/04/03 06:22:43;;;;;;;4.53;2.00;;;17.00;65.70;;;;;;5084073;28;20111;-43
2021/04/03 06:25:10;;;;;;;5.65;2.28;;;17.70;62.50;;;;;;5092009;28;20051;-43
2021/04/03 06:27:35;;;;;;;4.50;2.00;;;17.70;60.40;;;;;;5080793;28;20028;-45
2021/04/03 06:30:13;;;;;;;3.50;1.90;;;17.90;62.00;;;;;;5083038;28;20030;-43
2021/04/03 06:32:38;;;;;;;2.35;1.92;;;18.20;61.60;;;;;;5091023;28;20467;-43
2021/04/03 06:35:05;;;;;;;3.90;1.75;;;18.50;61.20;;;;;;5091789;28;20040;-45
2021/04/03 06:37:33;;;;;;;2.50;1.98;;;19.00;60.00;;;;;;5091871;28;20024;-46
2021/04/03 06:40:01;;;;;;;4.32;1.98;;;18.70;57.40;;;;;;5091208;28;20032;-44
2021/04/03 06:42:40;;;;;;;3.38;1.90;;;18.60;57.50;;;;;;5091825;28;20024;-45
2021/04/03 06:45:26;;;;;;;3.25;1.60;;;18.50;55.50;;;;;;5091426;28;20035;-44
2021/04/03 06:48:08;;;;;;;2.92;1.80;;;18.60;55.50;;;;;;5079130;28;20021;-43
2021/04/03 06:50:42;;;;;;;2.83;2.25;;;18.80;55.50;;;;;;5089053;28;20483;-43
2021/04/03 06:53:18;;;;;;;3.40;2.13;;;17.90;53.20;;;;;;5089589;28;20375;-43
2021/04/03 06:55:45;;;;;;;;;;;17.60;54.00;;;;;;5091850;28;20040;-44
2021/04/03 06:58:12;;;;;;;5.22;2.05;;;17.10;51.80;;;;;;5091517;28;19907;-44
2021/04/03 07:00:38;;;;;;;1.77;1.60;;;16.50;56.20;;;;;;5091726;28;20474;-43
2021/04/03 07:03:24;;;;;;;2.40;2.03;;;17.50;57.00;;;;;;5090474;28;20031;-43
2021/04/03 07:05:50;;;;;;;;;;;18.40;52.20;;;;;;5091660;28;20028;-48
2021/04/03 07:08:16;;;;;;;3.28;1.50;;;19.00;52.50;;;;;;5091324;28;19908;-43
2021/04/03 07:10:46;;;;;;;3.92;2.00;;;19.20;53.10;;;;;;5091299;28;20032;-44
2021/04/03 07:13:13;;;;;;;2.80;1.38;;;19.50;52.20;;;;;;5084015;28;20034;-43
2021/04/03 07:15:39;;;;;;;5.95;2.20;;;19.70;51.90;;;;;;5082908;28;20104;-45
2021/04/03 07:18:09;;;;;;;3.05;1.88;;;19.60;50.60;;;;;;5089706;28;20020;-44
2021/04/03 07:20:36;;;;;;;3.65;1.60;;;19.50;48.50;;;;;;5089514;28;20047;-43
2021/04/03 07:23:04;;;;;;;2.25;1.30;;;19.80;50.00;;;;;;5089990;28;20028;-45
2021/04/03 07:25:42;;;;;;;3.08;1.67;;;20.30;49.80;;;;;;5091052;28;20043;-44
2021/04/03 07:28:07;;;;;;;5.38;1.80;;;20.90;48.30;;;;;;5066581;28;20016;-44
2021/04/03 07:30:41;;;;;;;1.92;1.30;;;20.70;48.20;;;;;;5082290;28;20464;-44
2021/04/03 07:33:11;;;;;;;2.75;1.60;;;20.70;44.80;;;;;;5071354;28;20028;-44
2021/04/03 07:35:48;;;;;;;3.83;1.85;;;20.80;47.80;;;;;;5071825;28;20029;-45
2021/04/03 07:38:20;;;;;;;1.75;1.20;;;20.70;44.00;;;;;;5071895;28;20020;-43
2021/04/03 07:40:49;;;;;;;2.13;1.30;;;21.10;47.10;;;;;;5072255;28;20050;-43
2021/04/03 07:43:42;;;;;;;4.05;1.13;;;21.60;47.40;;;;;;5071683;28;20017;-45
2021/04/03 07:46:30;;;;;;;2.08;1.13;;;21.40;41.90;;;;;;5070694;28;20120;-44
2021/04/03 07:48:57;;;;;;;1.65;1.23;;;21.60;45.60;;;;;;5063914;28;20042;-44
2021/04/03 07:51:23;;;;;;;4.68;1.50;;;21.60;44.70;;;;;;5071891;28;20078;-46
2021/04/03 07:53:50;;;;;;;2.20;1.30;;;21.90;44.70;;;;;;5071531;28;20024;-44
2021/04/03 07:56:19;;;;;;;2.67;1.30;;;22.00;44.70;;;;;;5071805;28;20044;-43
2021/04/03 07:58:49;;;;;;;1.70;1.10;;;22.00;44.90;;;;;;5072174;28;20375;-43
2021/04/03 08:01:16;;;;;;;3.17;1.30;;;22.30;44.20;;;;;;5072291;28;20035;-44
2021/04/03 08:03:52;;;;;;;2.13;1.50;;;22.70;44.00;;;;;;5071364;28;20122;-43
2021/04/03 08:06:18;;;;;;;1.20;1.10;;;22.10;39.70;;;;;;5072134;28;20028;-45
2021/04/03 08:08:44;;;;;;;1.83;1.13;;;21.80;41.40;;;;;;5072227;28;20381;-44
2021/04/03 08:11:14;;;;;;;1.90;1.08;;;22.10;43.00;;;;;;5072090;28;20032;-44
2021/04/03 08:13:42;;;;;;;1.98;1.23;;;22.20;41.60;;;;;;5071734;28;20021;-46
2021/04/03 08:16:11;;;;;;;2.15;1.40;;;21.90;39.80;;;;;;5071941;28;20036;-45
2021/04/03 08:18:42;;;;;;;4.53;1.75;;;21.50;40.70;;;;;;5071163;28;20103;-44
2021/04/03 08:21:08;;;;;;;3.45;1.25;;;21.30;40.80;;;;;;5072159;28;20021;-46
2021/04/03 08:23:44;;;;;;;2.45;1.15;;;21.00;39.90;;;;;;5071116;28;20021;-43
2021/04/03 08:26:10;;;;;;;1.95;1.25;;;21.30;40.70;;;;;;5071630;28;20546;-43
2021/04/03 08:28:36;;;;;;;1.83;1.10;;;21.60;41.10;;;;;;5071972;28;20107;-43
2021/04/03 08:31:23;;;;;;;2.03;1.00;;;21.60;39.90;;;;;;5072102;28;20024;-43
2021/04/03 08:33:55;;;;;;;2.95;1.42;;;21.60;38.40;;;;;;5071247;28;20028;-43
2021/04/03 08:36:24;;;;;;;1.98;1.08;;;21.60;39.80;;;;;;5072041;28;20024;-43
2021/04/03 08:38:55;;;;;;;2.28;1.00;;;21.60;38.50;;;;;;5071819;28;20347;-43
2021/04/03 08:41:25;;;;;;;2.13;1.02;;;20.30;40.00;;;;;;5071777;28;20032;-43
2021/04/03 08:43:52;;;;;;;1.90;0.93;;;19.20;40.20;;;;;;5071631;28;20024;-43
2021/04/03 08:46:19;;;;;;;2.28;1.02;;;19.40;41.50;;;;;;5071896;28;20487;-48
2021/04/03 08:48:47;;;;;;;1.90;0.90;;;19.60;40.50;;;;;;5071127;28;20031;-42
2021/04/03 08:51:13;;;;;;;2.47;1.00;;;19.50;41.00;;;;;;5071973;28;20094;-43
2021/04/03 08:53:44;;;;;;;1.95;1.10;;;19.00;41.50;;;;;;5071814;28;20032;-43
2021/04/03 08:56:17;;;;;;;2.75;1.30;;;17.50;42.50;;;;;;5071647;28;20133;-43
2021/04/03 08:58:42;;;;;;;1.48;0.90;;;17.10;43.30;;;;;;5069962;28;20063;-43
2021/04/03 09:01:09;;;;;;;2.13;1.20;;;17.00;43.80;;;;;;5072055;28;20048;-43
2021/04/03 09:03:36;;;;;;;2.00;0.80;;;17.40;43.30;;;;;;5073652;28;20028;-43
2021/04/03 09:06:04;;;;;;;1.02;0.73;;;17.30;44.20;;;;;;5075337;28;20466;-46
2021/04/03 09:08:29;;;;;;;1.50;0.95;;;17.90;43.00;;;;;;5075189;28;20028;-43
2021/04/03 09:11:03;;;;;;;0.93;0.68;;;18.50;42.20;;;;;;5065868;28;20036;-45
2021/04/03 09:13:37;;;;;;;1.33;0.80;;;18.20;41.80;;;;;;5079748;28;20016;-43
2021/04/03 09:16:14;;;;;;;1.75;0.80;;;18.00;42.20;;;;;;5089919;28;20096;-43
2021/04/03 09:18:42;;;;;;;3.33;0.90;;;18.20;41.80;;;;;;5088518;28;20013;-43
2021/04/03 09:21:21;;;;;;;1.15;0.73;;;17.90;41.60;;;;;;5091715;28;20024;-44
2021/04/03 09:23:51;;;;;;;1.75;0.75;;;17.10;42.50;;;;;;5093304;28;20024;-45
2021/04/03 09:26:30;;;;;;;0.68;0.52;;;17.00;43.20;;;;;;5093244;28;20028;-43
2021/04/03 09:29:10;;;;;;;1.23;0.90;;;16.30;43.70;;;;;;5090933;28;20098;-43
2021/04/03 09:31:43;;;;;;;2.22;0.80;;;15.90;44.40;;;;;;5093368;28;20058;-43
2021/04/03 09:34:09;;;;;;;1.80;0.77;;;15.50;44.80;;;;;;5076298;28;20051;-43
2021/04/03 09:36:46;;;;;;;2.13;0.63;;;14.40;46.20;;;;;;5092845;28;20020;-42
2021/04/03 09:39:15;;;;;;;2.03;0.88;;;13.50;48.50;;;;;;5077038;28;20111;-42
2021/04/03 09:41:49;;;;;;;1.98;0.85;;;12.80;49.50;;;;;;5073054;28;20442;-45
2021/04/03 09:44:15;;;;;;;2.03;0.50;;;12.40;50.20;;;;;;5066714;28;20119;-45
2021/04/03 09:46:41;;;;;;;2.22;0.65;;;12.10;50.50;;;;;;5084414;28;20108;-43
2021/04/03 09:49:12;;;;;;;2.17;0.77;;;12.00;50.70;;;;;;5069883;28;20112;-42
2021/04/03 09:51:38;;;;;;;0.77;0.70;;;12.10;51.10;;;;;;5074011;28;20035;-43
2021/04/03 09:54:05;;;;;;;4.68;0.70;;;12.30;51.10;;;;;;5072720;28;20036;-42
2021/04/03 09:56:31;;;;;;;0.70;0.50;;;12.30;51.30;;;;;;5090285;28;20042;-45
2021/04/03 09:58:58;;;;;;;2.92;0.80;;;12.20;51.10;;;;;;5092595;28;20020;-42
2021/04/03 10:01:24;;;;;;;0.75;0.45;;;12.10;52.00;;;;;;5092288;28;20027;-45
2021/04/03 10:03:51;;;;;;;1.27;0.70;;;11.90;52.10;;;;;;5091492;28;20051;-42
2021/04/03 10:06:16;;;;;;;1.15;0.50;;;11.90;52.90;;;;;;5092476;28;20048;-41
2021/04/03 10:08:42;;;;;;;1.75;0.98;;;11.90;52.50;;;;;;5092436;28;20070;-41
2021/04/03 10:11:07;;;;;;;2.33;0.60;;;11.70;52.30;;;;;;5092193;28;20104;-43
2021/04/03 10:13:33;;;;;;;0.60;0.40;;;11.70;51.90;;;;;;5086757;28;20028;-43
2021/04/03 10:15:58;;;;;;;0.90;0.52;;;11.70;51.70;;;;;;5077655;28;20122;-41
2021/04/03 10:18:24;;;;;;;1.58;0.63;;;11.90;51.30;;;;;;5079747;28;20020;-43
2021/04/03 10:20:49;;;;;;;2.17;0.68;;;11.80;50.70;;;;;;5089765;28;20043;-42
2021/04/03 10:23:15;;;;;;;1.55;0.68;;;11.70;50.40;;;;;;5092120;28;20024;-41
2021/04/03 10:25:41;;;;;;;0.65;0.30;;;11.60;50.30;;;;;;5091849;28;20154;-41
2021/04/03 10:28:07;;;;;;;1.27;0.60;;;11.60;50.30;;;;;;5090636;28;20038;-43
2021/04/03 10:30:32;;;;;;;1.48;0.50;;;11.30;50.10;;;;;;5091633;28;20111;-43
2021/04/03 10:32:58;;;;;;;2.25;0.65;;;10.90;50.50;;;;;;5085068;28;20497;-46
2021/04/03 10:35:23;;;;;;;0.82;0.43;;;10.70;51.00;;;;;;5076679;28;20620;-46
2021/04/03 10:37:49;;;;;;;0.60;0.40;;;10.50;50.80;;;;;;5071645;28;20024;-43
2021/04/03 10:40:15;;;;;;;1.15;0.30;;;10.30;50.50;;;;;;5078980;28;20125;-41
2021/04/03 10:42:40;;;;;;;1.17;0.40;;;10.40;50.60;;;;;;5079772;28;20121;-41
2021/04/03 10:45:07;;;;;;;0.88;0.30;;;10.50;50.30;;;;;;5071651;28;20025;-43
2021/04/03 10:47:32;;;;;;;0.95;0.57;;;10.60;50.10;;;;;;5078162;28;20028;-43
2021/04/03 10:49:58;;;;;;;3.95;0.60;;;10.70;50.10;;;;;;5079112;28;20034;-43
2021/04/03 10:52:23;;;;;;;1.08;0.88;;;10.60;50.50;;;;;;5087631;28;20059;-43
2021/04/03 10:54:49;;;;;;;1.38;0.68;;;10.60;50.70;;;;;;5090089;28;20127;-41
2021/04/03 10:57:15;;;;;;;0.70;0.40;;;10.40;50.50;;;;;;5081308;28;20032;-41
2021/04/03 10:59:41;;;;;;;2.95;0.60;;;10.40;50.90;;;;;;5082822;28;20028;-42
2021/04/03 11:02:07;;;;;;;2.47;0.60;;;10.50;50.50;;;;;;5072090;28;20079;-43
2021/04/03 11:04:32;;;;;;;2.78;0.60;;;10.90;50.20;;;;;;5067536;28;20052;-46
2021/04/03 11:06:58;;;;;;;0.93;0.65;;;11.30;49.30;;;;;;5073304;28;20020;-40
2021/04/03 11:09:23;;;;;;;1.02;0.50;;;11.30;49.10;;;;;;5071362;28;20032;-41
2021/04/03 11:11:49;;;;;;;2.72;0.52;;;11.30;49.10;;;;;;5072526;28;20032;-41
2021/04/03 11:14:14;;;;;;;1.33;0.60;;;11.20;49.60;;;;;;5060644;28;20037;-42
2021/04/03 11:16:40;;;;;;;1.95;0.60;;;11.00;49.70;;;;;;5067100;28;20036;-41
2021/04/03 11:19:05;;;;;;;1.88;0.60;;;10.80;48.70;;;;;;5075105;28;20298;-43
2021/04/03 11:21:31;;;;;;;1.17;0.75;;;10.70;49.20;;;;;;5076809;28;20036;-41
2021/04/03 11:23:56;;;;;;;2.25;0.80;;;10.50;48.60;;;;;;5070480;28;20055;-43
2021/04/03 11:26:22;;;;;;;5.18;0.70;;;10.50;48.80;;;;;;5079270;28;20665;-40
2021/04/03 11:28:47;;;;;;;2.75;0.88;;;10.60;49.00;;;;;;5073548;28;20040;-42
2021/04/03 11:31:13;;;;;;;1.88;0.70;;;10.60;49.70;;;;;;5073052;28;20021;-41
2021/04/03 11:33:38;;;;;;;0.95;0.50;;;10.70;50.10;;;;;;5083072;28;20028;-43
2021/04/03 11:36:04;;;;;;;1.42;0.93;;;10.80;50.00;;;;;;5074696;28;20452;-41
2021/04/03 11:38:30;;;;;;;1.00;0.63;;;10.90;50.40;;;;;;5082184;28;20024;-43
2021/04/03 11:40:56;;;;;;;1.95;0.70;;;11.00;50.70;;;;;;5076677;28;20532;-41
2021/04/03 11:43:22;;;;;;;1.38;0.90;;;10.90;51.00;;;;;;5083251;28;20034;-41
2021/04/03 11:45:48;;;;;;;1.60;0.88;;;11.00;51.40;;;;;;5061434;28;20031;-43
2021/04/03 11:48:15;;;;;;;1.35;0.90;;;11.00;51.50;;;;;;5082206;28;20036;-43
2021/04/03 11:50:41;;;;;;;1.38;0.68;;;11.00;50.40;;;;;;5074870;28;20514;-43
2021/04/03 11:53:07;;;;;;;1.67;0.70;;;11.00;49.50;;;;;;5072788;28;20033;-43
2021/04/03 11:55:32;;;;;;;1.83;0.68;;;11.10;49.70;;;;;;5083863;28;20045;-44
2021/04/03 11:57:58;;;;;;;1.08;0.70;;;11.10;49.90;;;;;;5075189;28;20032;-45
2021/04/03 12:00:24;;;;;;;1.13;0.60;;;11.10;50.00;;;;;;5075467;28;20028;-40
2021/04/03 12:02:49;;;;;;;1.35;0.60;;;11.20;50.10;;;;;;5072498;28;20525;-42
2021/04/03 12:05:16;;;;;;;1.25;0.68;;;11.30;50.20;;;;;;5082261;28;20139;-43
2021/04/03 12:07:42;;;;;;;3.78;0.65;;;11.30;50.80;;;;;;5079360;28;20028;-41
2021/04/03 12:10:11;;;;;;;1.60;0.80;;;11.00;51.70;;;;;;5085398;28;20111;-42
2021/04/03 12:12:39;;;;;;;1.42;0.57;;;10.70;52.60;;;;;;5069581;28;20473;-45
2021/04/03 12:15:07;;;;;;;1.13;0.60;;;10.50;53.10;;;;;;5069981;28;20039;-42
2021/04/03 12:17:32;;;;;;;1.90;0.82;;;10.30;53.40;;;;;;5070509;28;20054;-43
2021/04/03 12:19:58;;;;;;;1.13;0.50;;;10.30;53.50;;;;;;5076588;28;20099;-42
2021/04/03 12:22:23;;;;;;;1.50;0.85;;;10.40;52.90;;;;;;5074782;28;20020;-41
2021/04/03 12:24:49;;;;;;;0.88;0.50;;;10.40;52.30;;;;;;5077514;28;20103;-41
2021/04/03 12:27:15;;;;;;;1.23;0.80;;;10.60;52.00;;;;;;5075757;28;20032;-47
2021/04/03 12:29:40;;;;;;;2.60;0.77;;;10.70;51.10;;;;;;5086072;28;20031;-50
2021/04/03 12:32:06;;;;;;;0.85;0.52;;;10.80;51.30;;;;;;5070073;28;20103;-48
2021/04/03 12:34:32;;;;;;;1.70;0.50;;;10.80;51.30;;;;;;5078105;28;20069;-52
2021/04/03 12:36:57;;;;;;;3.30;0.60;;;10.60;51.70;;;;;;5070826;28;20040;-45
2021/04/03 12:39:23;;;;;;;2.70;0.75;;;10.30;53.80;;;;;;5074954;28;20017;-47
2021/04/03 12:41:48;;;;;;;5.20;0.80;;;9.90;55.80;;;;;;5074920;28;20100;-45
2021/04/03 12:44:14;;;;;;;1.95;0.52;;;9.60;56.80;;;;;;5088284;28;20016;-48
2021/04/03 12:46:39;;;;;;;1.48;0.50;;;9.50;57.20;;;;;;5080491;28;20028;-47
2021/04/03 12:49:05;;;;;;;1.02;0.68;;;9.30;56.80;;;;;;5087069;28;20388;-50
2021/04/03 12:51:31;;;;;;;1.23;0.40;;;9.20;57.30;;;;;;5088255;28;20024;-47
2021/04/03 12:53:56;;;;;;;3.17;0.80;;;9.20;56.40;;;;;;5078655;28;20051;-48